Time;durP1;ratioP1;P1;durP2;ratioP2;P2;SDS_P1;SDS_P2;PMS_P1;PMS_P2;Temp;Humidity;BMP_temperature;BMP_pressure;BME280_temperature;BME280_humidity;BME280_pressure;Samples;Min_cycle;Max_cycle;Signal;HPM_P1;HPM_P2
2021/11/06 00:01:43;;;;;;;27.83;13.98;;;7.20;99.90;;;;;;5011061;28;20868;-76
2021/11/06 00:04:09;;;;;;;25.77;14.27;;;7.20;99.90;;;;;;5010770;28;20392;-75
2021/11/06 00:06:35;;;;;;;33.43;16.50;;;7.20;99.90;;;;;;5010744;28;20408;-75
2021/11/06 00:09:00;;;;;;;38.03;16.70;;;7.20;99.90;;;;;;5011619;28;20407;-75
2021/11/06 00:11:26;;;;;;;37.03;18.73;;;7.20;99.90;;;;;;5009692;28;20408;-75
2021/11/06 00:13:52;;;;;;;32.38;18.48;;;7.20;99.90;;;;;;5018719;28;20410;-75
2021/11/06 00:16:17;;;;;;;33.35;17.50;;;7.20;99.90;;;;;;5010793;28;20932;-76
2021/11/06 00:18:43;;;;;;;35.35;18.58;;;7.40;99.90;;;;;;5010246;28;20488;-76
2021/11/06 00:21:08;;;;;;;35.72;19.10;;;7.30;99.90;;;;;;5009894;28;20746;-73
2021/11/06 00:23:34;;;;;;;35.33;20.33;;;7.20;99.90;;;;;;5010495;28;20489;-74
2021/11/06 00:26:00;;;;;;;36.83;20.60;;;7.20;99.90;;;;;;5010915;28;20412;-76
2021/11/06 00:28:25;;;;;;;43.23;21.33;;;7.20;99.90;;;;;;5011185;28;20476;-75
2021/11/06 00:30:51;;;;;;;39.07;21.80;;;7.20;99.90;;;;;;5011044;28;20380;-73
2021/11/06 00:33:17;;;;;;;39.40;22.15;;;7.20;99.90;;;;;;5011265;28;20472;-73
2021/11/06 00:35:43;;;;;;;41.75;21.55;;;7.10;99.90;;;;;;5010300;28;20404;-74
2021/11/06 00:38:09;;;;;;;39.28;19.73;;;7.10;99.90;;;;;;5011525;28;20396;-74
2021/11/06 00:40:34;;;;;;;39.30;20.50;;;7.10;99.90;;;;;;5011970;28;20450;-74
2021/11/06 00:43:00;;;;;;;36.53;19.98;;;7.00;99.90;;;;;;5011906;28;20380;-73
2021/11/06 00:45:25;;;;;;;42.17;20.13;;;7.10;99.90;;;;;;5011077;28;20901;-73
2021/11/06 00:47:51;;;;;;;33.00;18.23;;;7.10;99.90;;;;;;5010672;28;20393;-73
2021/11/06 00:50:17;;;;;;;38.75;18.17;;;7.10;99.90;;;;;;5012045;28;20392;-74
2021/11/06 00:52:45;;;;;;;38.30;17.97;;;7.20;99.90;;;;;;5012596;28;20495;-74
2021/11/06 00:55:11;;;;;;;41.55;18.20;;;7.20;99.90;;;;;;5011403;28;20508;-73
2021/11/06 00:57:37;;;;;;;35.58;18.00;;;7.20;99.90;;;;;;5011775;28;20393;-73
2021/11/06 01:00:09;;;;;;;42.17;18.10;;;7.10;99.90;;;;;;5009820;28;20392;-74
2021/11/06 01:02:34;;;;;;;53.20;17.75;;;7.10;99.90;;;;;;5009532;28;20402;-74
2021/11/06 01:05:00;;;;;;;43.40;18.45;;;7.10;99.90;;;;;;5010512;28;21014;-74
2021/11/06 01:07:26;;;;;;;42.97;17.70;;;7.00;99.90;;;;;;5011369;28;20385;-74
2021/11/06 01:09:51;;;;;;;36.50;16.83;;;7.00;99.90;;;;;;5012273;28;20385;-73
2021/11/06 01:12:17;;;;;;;40.17;16.67;;;7.10;99.90;;;;;;5017542;28;20860;-73
2021/11/06 01:14:43;;;;;;;48.35;17.02;;;7.10;98.70;;;;;;5012617;28;20447;-75
2021/11/06 01:17:09;;;;;;;41.70;16.20;;;7.10;99.70;;;;;;5010720;28;20451;-75
2021/11/06 01:19:34;;;;;;;45.00;17.10;;;7.00;98.40;;;;;;5010932;28;20401;-75
2021/11/06 01:22:00;;;;;;;54.60;17.73;;;7.00;98.70;;;;;;5010448;28;20385;-75
2021/11/06 01:24:26;;;;;;;44.13;16.77;;;7.00;99.80;;;;;;5010552;28;20392;-74
2021/11/06 01:26:53;;;;;;;42.42;15.93;;;6.90;99.80;;;;;;5010928;28;20487;-74
2021/11/06 01:29:18;;;;;;;42.85;16.08;;;7.00;98.00;;;;;;5009676;28;20826;-74
2021/11/06 01:31:44;;;;;;;45.83;15.97;;;6.90;96.80;;;;;;5012347;28;20459;-73
2021/11/06 01:34:10;;;;;;;44.10;16.20;;;6.90;97.90;;;;;;5011181;28;20404;-74
2021/11/06 01:36:35;;;;;;;43.95;15.75;;;6.80;97.90;;;;;;5012294;28;20422;-74
2021/11/06 01:39:01;;;;;;;39.15;15.15;;;6.90;98.60;;;;;;5011025;28;20885;-73
2021/11/06 01:41:27;;;;;;;37.45;14.27;;;6.90;98.10;;;;;;5011034;28;20380;-74
2021/11/06 01:43:52;;;;;;;39.47;14.90;;;7.00;96.10;;;;;;5010170;28;20400;-73
2021/11/06 01:46:18;;;;;;;42.07;14.70;;;7.00;95.40;;;;;;5010393;28;20475;-73
2021/11/06 01:48:44;;;;;;;41.57;15.13;;;6.90;96.30;;;;;;5010772;28;20811;-73
2021/11/06 01:51:10;;;;;;;36.43;15.00;;;6.90;95.50;;;;;;5010666;28;20385;-74
2021/11/06 01:53:35;;;;;;;37.50;14.77;;;6.90;96.60;;;;;;5010226;28;20447;-73
2021/11/06 01:56:02;;;;;;;42.97;15.27;;;6.90;96.40;;;;;;5009967;28;20447;-74
2021/11/06 01:58:29;;;;;;;38.42;13.80;;;6.90;95.60;;;;;;5010710;28;20892;-74
2021/11/06 02:00:56;;;;;;;40.35;15.77;;;6.80;96.30;;;;;;5010617;28;20389;-73
2021/11/06 02:03:22;;;;;;;42.47;14.93;;;6.90;95.40;;;;;;5010117;28;20504;-73
2021/11/06 02:05:48;;;;;;;49.55;17.17;;;6.90;94.60;;;;;;5009386;28;20393;-73
2021/11/06 02:08:17;;;;;;;36.08;14.68;;;6.80;94.70;;;;;;5010603;28;20487;-73
2021/11/06 02:17:55;;;;;;;36.53;15.82;;;6.70;97.40;;;;;;5019412;28;20404;-75
2021/11/06 02:20:22;;;;;;;35.53;15.98;;;6.70;98.50;;;;;;5016173;28;20438;-74
2021/11/06 02:22:48;;;;;;;42.03;16.70;;;6.60;98.90;;;;;;5015244;28;20377;-73
2021/11/06 02:25:15;;;;;;;37.80;16.60;;;6.70;98.80;;;;;;5015173;28;20539;-74
2021/11/06 02:27:41;;;;;;;33.63;15.50;;;6.70;98.60;;;;;;5017907;28;20410;-74
2021/11/06 02:30:09;;;;;;;38.20;16.47;;;6.70;97.50;;;;;;5019465;28;20409;-74
2021/11/06 02:32:35;;;;;;;37.97;15.90;;;6.70;98.00;;;;;;5020077;28;20394;-74
2021/11/06 02:35:01;;;;;;;33.47;16.35;;;6.70;97.30;;;;;;5015902;28;20408;-73
2021/11/06 02:37:27;;;;;;;36.92;16.33;;;6.80;95.00;;;;;;5014332;28;20397;-73
2021/11/06 02:39:53;;;;;;;39.97;17.30;;;6.70;94.40;;;;;;5015079;28;20388;-73
2021/11/06 02:42:18;;;;;;;38.55;17.60;;;6.60;96.20;;;;;;5013060;28;20450;-74
2021/11/06 02:44:44;;;;;;;40.67;17.60;;;6.60;97.00;;;;;;5014684;28;20396;-74
2021/11/06 02:47:10;;;;;;;39.70;16.53;;;6.60;97.80;;;;;;5015861;28;20379;-74
2021/11/06 02:49:35;;;;;;;33.65;17.80;;;6.50;98.40;;;;;;5017444;28;20393;-74
2021/11/06 02:52:02;;;;;;;42.97;17.95;;;6.40;99.30;;;;;;5015259;28;20432;-74
2021/11/06 02:54:28;;;;;;;43.35;18.90;;;6.30;99.90;;;;;;5014922;28;20413;-73
2021/11/06 02:56:54;;;;;;;42.17;19.67;;;6.20;99.90;;;;;;5026815;28;20520;-75
2021/11/06 02:59:20;;;;;;;40.95;18.50;;;6.20;99.90;;;;;;5031875;28;20404;-74
2021/11/06 03:01:45;;;;;;;45.60;19.30;;;6.20;99.90;;;;;;5025868;28;20388;-73
2021/11/06 03:04:13;;;;;;;44.30;19.55;;;6.20;99.90;;;;;;5014695;28;20428;-74
2021/11/06 03:06:39;;;;;;;43.58;19.48;;;6.20;99.90;;;;;;5013414;28;20401;-74
2021/11/06 03:09:06;;;;;;;40.72;18.65;;;6.20;99.90;;;;;;5014239;28;20495;-74
2021/11/06 03:11:34;;;;;;;45.33;19.00;;;6.10;99.90;;;;;;5013274;28;20407;-74
2021/11/06 03:14:02;;;;;;;43.35;19.60;;;6.10;99.90;;;;;;5020971;28;20470;-74
2021/11/06 03:16:27;;;;;;;51.78;20.75;;;6.10;99.90;;;;;;5013039;28;20417;-73
2021/11/06 03:18:53;;;;;;;43.27;19.87;;;6.10;99.90;;;;;;5012774;28;20384;-74
2021/11/06 03:21:20;;;;;;;37.40;19.05;;;6.00;99.90;;;;;;5013028;28;20393;-73
2021/11/06 03:23:46;;;;;;;42.55;20.13;;;6.00;99.90;;;;;;5013441;28;20427;-74
2021/11/06 03:26:12;;;;;;;50.25;19.45;;;5.90;99.90;;;;;;5013092;28;20772;-72
2021/11/06 03:28:38;;;;;;;51.17;21.00;;;5.90;99.90;;;;;;5012726;28;20467;-73
2021/11/06 03:31:05;;;;;;;41.80;19.60;;;5.80;99.90;;;;;;5012250;28;20797;-74
2021/11/06 03:33:30;;;;;;;44.22;21.17;;;5.70;99.90;;;;;;5012505;28;20397;-72
2021/11/06 03:35:56;;;;;;;51.55;20.25;;;5.70;99.90;;;;;;5011263;28;20416;-72
2021/11/06 03:38:22;;;;;;;51.88;20.05;;;5.80;99.90;;;;;;5011868;28;20397;-73
2021/11/06 03:40:48;;;;;;;49.22;20.85;;;5.70;99.90;;;;;;5012298;28;20797;-73
2021/11/06 03:43:15;;;;;;;49.45;21.30;;;5.70;99.90;;;;;;5012025;28;20385;-73
2021/11/06 03:45:40;;;;;;;51.30;20.25;;;5.60;99.90;;;;;;5012260;28;20387;-73
2021/11/06 03:48:06;;;;;;;43.03;20.00;;;5.60;99.90;;;;;;5009994;28;20401;-73
2021/11/06 03:50:32;;;;;;;42.53;20.25;;;5.60;99.90;;;;;;5012232;28;20425;-73
2021/11/06 03:52:57;;;;;;;38.92;19.95;;;5.50;99.90;;;;;;5011978;28;20385;-73
2021/11/06 03:55:23;;;;;;;47.47;18.20;;;5.50;99.90;;;;;;5011988;28;20412;-72
2021/11/06 03:57:48;;;;;;;50.45;20.95;;;5.50;99.90;;;;;;5011735;28;20392;-72
2021/11/06 04:00:16;;;;;;;41.70;20.20;;;5.50;99.90;;;;;;5012947;28;20891;-73
2021/11/06 04:02:43;;;;;;;52.13;20.20;;;5.40;99.90;;;;;;5011625;28;20381;-73
2021/11/06 04:05:09;;;;;;;46.95;20.65;;;5.50;99.90;;;;;;5012123;28;20919;-73
2021/11/06 04:07:35;;;;;;;48.25;19.88;;;5.40;99.90;;;;;;5011791;28;20427;-74
2021/11/06 04:10:00;;;;;;;51.08;20.45;;;5.40;99.90;;;;;;5011375;28;20885;-74
2021/11/06 04:12:26;;;;;;;44.40;20.10;;;5.30;99.90;;;;;;5018470;28;20427;-73
2021/11/06 04:14:52;;;;;;;42.50;19.00;;;5.40;99.90;;;;;;5012684;28;20396;-74
2021/11/06 04:17:17;;;;;;;43.00;20.50;;;5.40;99.90;;;;;;5011282;28;20492;-73
2021/11/06 04:19:43;;;;;;;41.78;19.20;;;5.40;99.90;;;;;;5010015;28;20401;-73
2021/11/06 04:22:08;;;;;;;46.33;20.48;;;5.30;99.90;;;;;;5009211;28;20407;-73
2021/11/06 04:24:35;;;;;;;47.00;20.65;;;5.30;99.90;;;;;;5011695;28;20395;-73
2021/11/06 04:27:02;;;;;;;45.55;19.88;;;5.20;99.90;;;;;;5011406;28;20397;-73
2021/11/06 04:29:27;;;;;;;44.85;19.23;;;5.30;99.90;;;;;;5011999;28;20408;-74
2021/11/06 04:31:53;;;;;;;43.30;19.37;;;5.20;99.90;;;;;;5012466;28;20400;-73
2021/11/06 04:34:19;;;;;;;41.67;19.17;;;5.20;99.90;;;;;;5011346;28;20398;-74
2021/11/06 04:36:44;;;;;;;40.90;19.00;;;5.30;99.90;;;;;;5010530;28;20436;-74
2021/11/06 04:39:10;;;;;;;44.72;18.60;;;5.20;99.90;;;;;;5011490;28;20397;-74
2021/11/06 04:41:36;;;;;;;42.57;19.80;;;5.30;99.90;;;;;;5010815;28;20508;-73
2021/11/06 04:44:01;;;;;;;41.23;20.00;;;5.20;99.90;;;;;;5011602;28;20484;-73
2021/11/06 04:46:27;;;;;;;39.90;19.43;;;5.20;99.90;;;;;;5010898;28;20563;-73
2021/11/06 04:48:52;;;;;;;38.10;18.40;;;5.20;99.90;;;;;;5010860;28;20459;-73
2021/11/06 04:51:18;;;;;;;38.60;19.48;;;5.30;99.90;;;;;;5011121;28;20869;-73
2021/11/06 04:53:44;;;;;;;40.63;19.88;;;5.30;99.90;;;;;;5010761;28;20821;-73
2021/11/06 04:56:09;;;;;;;44.23;18.00;;;5.20;99.90;;;;;;5010971;28;20554;-73
2021/11/06 04:58:35;;;;;;;45.40;19.43;;;5.20;99.90;;;;;;5010416;28;20564;-73
2021/11/06 05:01:00;;;;;;;44.10;18.93;;;5.20;99.90;;;;;;5010719;28;20389;-73
2021/11/06 05:03:27;;;;;;;43.53;18.90;;;5.10;99.90;;;;;;5010689;28;20459;-73
2021/11/06 05:05:53;;;;;;;42.70;19.58;;;5.20;99.90;;;;;;5010825;28;20388;-73
2021/11/06 05:08:18;;;;;;;38.45;17.73;;;5.20;99.90;;;;;;5010660;28;20393;-73
2021/11/06 05:10:44;;;;;;;42.47;19.35;;;5.20;99.90;;;;;;5010558;28;20897;-73
2021/11/06 05:13:09;;;;;;;40.97;19.48;;;5.10;99.90;;;;;;5018451;28;20395;-73
2021/11/06 05:15:35;;;;;;;38.80;18.80;;;5.10;99.90;;;;;;5011017;28;21011;-73
2021/11/06 05:18:01;;;;;;;39.93;20.30;;;5.00;99.90;;;;;;5010524;28;20881;-73
2021/11/06 05:20:27;;;;;;;40.75;18.70;;;5.00;99.90;;;;;;5009970;28;20388;-72
2021/11/06 05:22:52;;;;;;;36.55;18.33;;;5.00;99.90;;;;;;5010373;28;20786;-72
2021/11/06 05:25:18;;;;;;;38.70;18.70;;;5.00;99.90;;;;;;5010640;28;20400;-72
2021/11/06 05:27:43;;;;;;;40.13;19.43;;;5.10;99.90;;;;;;5008347;28;20920;-72
2021/11/06 05:30:12;;;;;;;38.40;19.42;;;5.10;99.90;;;;;;5009777;28;20479;-73
2021/11/06 05:32:38;;;;;;;46.10;20.55;;;5.10;99.90;;;;;;5010977;28;20467;-73
2021/11/06 05:35:06;;;;;;;44.88;20.45;;;5.20;99.90;;;;;;5010711;28;20396;-73
2021/11/06 05:37:31;;;;;;;44.25;20.73;;;5.10;99.90;;;;;;5010863;28;20412;-72
2021/11/06 05:39:57;;;;;;;40.33;20.30;;;5.10;99.90;;;;;;5011029;28;20371;-74
2021/11/06 05:42:23;;;;;;;43.80;21.60;;;5.00;99.90;;;;;;5010864;28;20428;-74
2021/11/06 05:44:48;;;;;;;46.00;21.63;;;5.00;99.90;;;;;;5011812;28;20424;-74
2021/11/06 05:47:14;;;;;;;48.00;22.00;;;5.00;99.90;;;;;;5012670;28;20401;-74
2021/11/06 05:49:40;;;;;;;46.75;23.17;;;5.10;99.90;;;;;;5015249;28;20841;-74
2021/11/06 05:52:06;;;;;;;45.63;22.17;;;5.10;99.90;;;;;;5018003;28;20407;-74
2021/11/06 05:54:31;;;;;;;46.58;21.58;;;5.10;99.90;;;;;;5015608;28;20909;-74
2021/11/06 05:56:57;;;;;;;49.43;22.03;;;5.10;99.90;;;;;;5012523;28;20412;-73
2021/11/06 05:59:23;;;;;;;50.53;22.87;;;5.20;99.90;;;;;;5014462;28;20389;-73
2021/11/06 06:01:48;;;;;;;40.70;21.88;;;5.10;99.90;;;;;;5031713;28;20393;-73
2021/11/06 06:04:14;;;;;;;46.42;23.08;;;5.00;99.90;;;;;;5022590;28;20878;-73
2021/11/06 06:06:40;;;;;;;48.60;22.10;;;5.00;99.90;;;;;;5014495;28;20392;-73
2021/11/06 06:09:06;;;;;;;48.95;23.08;;;5.00;99.90;;;;;;5014099;28;20762;-73
2021/11/06 06:11:32;;;;;;;52.67;25.08;;;4.90;99.90;;;;;;5014855;28;20396;-73
2021/11/06 06:13:57;;;;;;;43.60;22.53;;;4.90;99.90;;;;;;5019589;28;20455;-72
2021/11/06 06:16:23;;;;;;;49.03;23.33;;;4.90;99.90;;;;;;5013071;28;20420;-73
2021/11/06 06:18:49;;;;;;;48.15;21.75;;;5.00;99.90;;;;;;5013887;28;20743;-74
2021/11/06 06:21:15;;;;;;;48.23;23.50;;;5.00;99.90;;;;;;5013733;28;20885;-74
2021/11/06 06:23:41;;;;;;;46.20;22.40;;;5.00;99.90;;;;;;5013674;28;20389;-74
2021/11/06 06:26:07;;;;;;;42.07;21.30;;;5.00;99.90;;;;;;5012894;28;20487;-74
2021/11/06 06:28:32;;;;;;;46.50;22.55;;;5.00;99.90;;;;;;5013327;28;20539;-74
2021/11/06 06:30:58;;;;;;;45.22;21.27;;;5.00;99.90;;;;;;5013915;28;20881;-76
2021/11/06 06:33:23;;;;;;;46.15;22.67;;;5.10;99.90;;;;;;5013401;28;20483;-75
2021/11/06 06:35:49;;;;;;;52.22;21.85;;;5.10;99.90;;;;;;5012873;28;20409;-74
2021/11/06 06:38:14;;;;;;;46.83;22.73;;;5.30;99.90;;;;;;5013898;28;20523;-75
2021/11/06 06:40:40;;;;;;;45.77;21.60;;;5.30;99.90;;;;;;5013635;28;20388;-74
2021/11/06 06:43:06;;;;;;;43.20;22.57;;;5.40;99.90;;;;;;5012156;28;21157;-75
2021/11/06 06:45:31;;;;;;;46.47;22.00;;;5.50;99.90;;;;;;5012638;28;20802;-75
2021/11/06 06:47:57;;;;;;;44.60;22.10;;;5.60;99.90;;;;;;5013642;28;20886;-75
2021/11/06 06:50:23;;;;;;;53.88;24.23;;;5.60;99.90;;;;;;5013657;28;20865;-75
2021/11/06 06:52:49;;;;;;;44.67;22.17;;;5.70;99.90;;;;;;5015641;28;20765;-75
2021/11/06 06:55:14;;;;;;;48.70;21.93;;;5.70;99.90;;;;;;5015818;28;20421;-75
2021/11/06 06:57:40;;;;;;;49.17;21.75;;;5.80;99.90;;;;;;5020987;28;20385;-76
2021/11/06 07:00:08;;;;;;;49.10;21.25;;;5.90;99.90;;;;;;5015209;28;20814;-76
2021/11/06 07:02:33;;;;;;;48.17;21.10;;;6.00;99.90;;;;;;5013391;28;20392;-75
2021/11/06 07:04:59;;;;;;;41.37;21.67;;;5.90;99.90;;;;;;5011763;28;20401;-75
2021/11/06 07:07:25;;;;;;;44.70;20.97;;;5.90;99.90;;;;;;5012739;28;20523;-75
2021/11/06 07:09:51;;;;;;;45.03;21.77;;;5.90;99.90;;;;;;5013336;28;20818;-74
2021/11/06 07:12:17;;;;;;;42.55;21.13;;;5.90;99.90;;;;;;5024758;28;20405;-75
2021/11/06 07:14:43;;;;;;;41.77;21.50;;;5.90;99.90;;;;;;5019794;28;20473;-75
2021/11/06 07:17:08;;;;;;;43.58;20.90;;;5.90;99.90;;;;;;5017023;28;20420;-75
2021/11/06 07:19:34;;;;;;;45.35;21.00;;;5.90;99.00;;;;;;5012628;28;20429;-74
2021/11/06 07:22:00;;;;;;;46.70;22.45;;;5.90;99.90;;;;;;5011975;28;20470;-76
2021/11/06 07:24:27;;;;;;;45.42;24.33;;;5.90;99.90;;;;;;5012825;28;20435;-75
2021/11/06 07:26:53;;;;;;;41.72;21.25;;;5.90;99.40;;;;;;5012996;28;20874;-75
2021/11/06 07:29:19;;;;;;;42.30;21.83;;;5.90;99.90;;;;;;5011805;28;20400;-76
2021/11/06 07:31:44;;;;;;;40.17;21.25;;;6.00;99.90;;;;;;5011676;28;20519;-75
2021/11/06 07:34:10;;;;;;;42.65;22.50;;;6.10;99.00;;;;;;5007249;28;20412;-77
2021/11/06 07:36:36;;;;;;;49.30;24.08;;;6.10;98.80;;;;;;5012892;28;20909;-76
2021/11/06 07:39:01;;;;;;;44.03;20.87;;;6.20;99.50;;;;;;5019246;28;20401;-76
2021/11/06 07:41:28;;;;;;;44.83;22.10;;;6.30;97.80;;;;;;5020433;28;20395;-76
2021/11/06 07:43:54;;;;;;;42.67;20.70;;;6.40;99.90;;;;;;5018232;28;20742;-77
2021/11/06 07:46:21;;;;;;;43.60;21.52;;;6.50;99.80;;;;;;5016522;28;20412;-77
2021/11/06 07:48:48;;;;;;;43.63;21.13;;;6.60;93.30;;;;;;5029064;28;20383;-76
2021/11/06 07:51:14;;;;;;;40.95;20.33;;;6.70;92.20;;;;;;5035583;28;20385;-75
2021/11/06 07:53:39;;;;;;;40.17;20.00;;;6.80;88.50;;;;;;5035335;28;20390;-75
2021/11/06 07:56:05;;;;;;;40.40;21.70;;;6.90;85.20;;;;;;5017841;28;20431;-76
2021/11/06 07:58:31;;;;;;;40.83;20.42;;;7.00;85.80;;;;;;5009801;28;20463;-75
2021/11/06 08:00:57;;;;;;;39.25;19.48;;;7.10;86.40;;;;;;5002826;28;20406;-75
2021/11/06 08:03:23;;;;;;;35.08;19.63;;;7.20;83.90;;;;;;5012836;28;20591;-75
2021/11/06 08:05:49;;;;;;;37.78;19.83;;;7.40;80.00;;;;;;5011562;28;20436;-75
2021/11/06 08:08:15;;;;;;;33.40;18.23;;;7.40;79.90;;;;;;5011916;28;20476;-75
2021/11/06 08:10:41;;;;;;;35.30;18.83;;;7.60;75.60;;;;;;5011386;28;20473;-74
2021/11/06 08:13:07;;;;;;;34.03;18.38;;;7.80;72.90;;;;;;5020095;28;20967;-77
2021/11/06 08:15:33;;;;;;;34.92;19.08;;;7.80;70.00;;;;;;5004788;28;20421;-76
2021/11/06 08:17:59;;;;;;;34.97;18.20;;;7.80;70.30;;;;;;5003910;28;20468;-76
2021/11/06 08:20:25;;;;;;;32.78;18.75;;;7.90;70.00;;;;;;5009830;28;20905;-75
2021/11/06 08:22:54;;;;;;;36.85;19.30;;;8.10;69.60;;;;;;5008432;28;20430;-76
2021/11/06 08:25:21;;;;;;;34.67;18.57;;;8.10;68.10;;;;;;4998257;28;20493;-76
2021/11/06 08:27:49;;;;;;;35.38;18.33;;;8.30;67.50;;;;;;4997003;28;20401;-76
2021/11/06 08:30:16;;;;;;;27.55;17.27;;;8.40;64.90;;;;;;5012958;28;20398;-75
2021/11/06 08:32:42;;;;;;;32.38;17.35;;;8.40;63.60;;;;;;5013646;28;20397;-77
2021/11/06 08:35:09;;;;;;;32.67;17.95;;;8.50;61.30;;;;;;5011415;28;20405;-77
2021/11/06 08:37:38;;;;;;;31.42;15.65;;;8.60;59.90;;;;;;5010442;28;21459;-75
2021/11/06 08:40:08;;;;;;;33.40;16.48;;;8.60;58.20;;;;;;5013297;28;20404;-76
2021/11/06 08:42:34;;;;;;;26.13;15.02;;;8.70;57.30;;;;;;4996069;28;20533;-78
2021/11/06 08:45:02;;;;;;;28.27;15.65;;;8.80;56.70;;;;;;5010379;28;20487;-77
2021/11/06 08:47:27;;;;;;;32.00;14.73;;;8.90;55.30;;;;;;5009775;28;20400;-75
2021/11/06 08:49:53;;;;;;;26.73;14.07;;;9.00;54.60;;;;;;5010158;28;20462;-76
2021/11/06 08:52:20;;;;;;;30.60;13.40;;;9.10;52.90;;;;;;5008322;28;20404;-75
2021/11/06 08:54:49;;;;;;;25.10;13.65;;;9.20;53.10;;;;;;5008613;28;20508;-76
2021/11/06 08:57:17;;;;;;;25.85;12.68;;;9.30;52.20;;;;;;5010050;28;20440;-76
2021/11/06 08:59:43;;;;;;;24.95;13.90;;;9.40;51.30;;;;;;5005960;28;20410;-76
2021/11/06 09:02:10;;;;;;;25.27;12.85;;;10.20;48.60;;;;;;5011367;28;21411;-76
2021/11/06 09:04:36;;;;;;;25.20;12.40;;;10.80;42.80;;;;;;5011704;28;20470;-76
2021/11/06 09:07:03;;;;;;;22.85;12.27;;;10.90;41.40;;;;;;5011388;28;20996;-76
2021/11/06 09:09:28;;;;;;;21.83;12.10;;;10.90;39.80;;;;;;5010767;28;20774;-76
2021/11/06 09:11:54;;;;;;;19.73;12.07;;;10.80;40.90;;;;;;5007713;28;20440;-76
2021/11/06 09:14:20;;;;;;;17.83;10.70;;;10.70;41.10;;;;;;5010020;28;20400;-77
2021/11/06 09:16:46;;;;;;;23.98;12.70;;;10.60;41.40;;;;;;5005290;28;20781;-75
2021/11/06 09:19:13;;;;;;;22.25;10.80;;;10.40;42.20;;;;;;5006610;28;20878;-76
2021/11/06 09:21:40;;;;;;;16.55;10.77;;;10.40;41.20;;;;;;5013131;28;20394;-75
2021/11/06 09:24:05;;;;;;;18.75;10.80;;;10.30;42.50;;;;;;5012874;28;20456;-77
2021/11/06 09:26:37;;;;;;;24.15;12.40;;;10.30;43.60;;;;;;5020007;28;20892;-76
2021/11/06 09:29:04;;;;;;;31.07;11.67;;;10.30;43.50;;;;;;5012994;28;20436;-76
2021/11/06 09:31:30;;;;;;;26.00;11.60;;;10.40;41.90;;;;;;5014126;28;20412;-76
2021/11/06 09:33:56;;;;;;;32.47;11.93;;;10.50;42.10;;;;;;5015481;28;20428;-75
2021/11/06 09:36:22;;;;;;;20.38;10.55;;;10.60;42.30;;;;;;5015647;28;20498;-75
2021/11/06 09:38:48;;;;;;;27.10;10.93;;;10.70;41.60;;;;;;5013156;28;20408;-75
2021/11/06 09:41:16;;;;;;;18.00;9.23;;;10.70;41.60;;;;;;5014098;28;20846;-76
2021/11/06 09:43:42;;;;;;;17.40;9.70;;;10.50;42.10;;;;;;5024557;28;20508;-78
2021/11/06 09:46:10;;;;;;;13.47;8.60;;;10.40;42.10;;;;;;5013735;28;20404;-73
2021/11/06 09:48:38;;;;;;;19.83;8.77;;;10.40;42.40;;;;;;5014218;28;20404;-75
2021/11/06 09:51:04;;;;;;;18.75;9.82;;;10.50;42.10;;;;;;5014408;28;20893;-77
2021/11/06 09:53:36;;;;;;;18.77;8.85;;;10.70;40.00;;;;;;5015065;28;20447;-76
2021/11/06 09:56:01;;;;;;;16.20;8.50;;;10.70;40.70;;;;;;5012098;28;20428;-74
2021/11/06 09:58:27;;;;;;;15.65;8.95;;;10.80;39.60;;;;;;5013411;28;20404;-75
2021/11/06 10:00:53;;;;;;;11.32;7.20;;;10.90;39.50;;;;;;5010360;28;20442;-73
2021/11/06 10:03:18;;;;;;;15.20;8.20;;;10.90;39.40;;;;;;5010985;28;20405;-75
2021/11/06 10:05:45;;;;;;;13.60;9.07;;;10.80;39.50;;;;;;5012506;28;20488;-73
2021/11/06 10:08:24;;;;;;;17.47;8.27;;;10.90;38.90;;;;;;5015530;28;20492;-75
2021/11/06 10:10:53;;;;;;;18.90;8.98;;;10.90;38.90;;;;;;5012580;28;20426;-73
2021/11/06 10:13:20;;;;;;;11.40;7.00;;;11.00;38.90;;;;;;5023274;28;20401;-76
2021/11/06 10:15:49;;;;;;;11.07;7.40;;;11.10;38.40;;;;;;5014017;28;20408;-76
2021/11/06 10:18:17;;;;;;;14.43;7.53;;;11.20;38.20;;;;;;5014046;28;20399;-75
2021/11/06 10:20:45;;;;;;;15.73;7.50;;;11.30;37.20;;;;;;5013807;28;20381;-74
2021/11/06 10:23:11;;;;;;;23.00;8.57;;;11.50;36.80;;;;;;5013475;28;20393;-75
2021/11/06 10:25:37;;;;;;;21.95;6.95;;;11.60;36.60;;;;;;5015193;28;20499;-72
2021/11/06 10:28:15;;;;;;;11.30;6.80;;;11.70;36.20;;;;;;5015094;28;20762;-74
2021/11/06 10:30:44;;;;;;;16.60;7.40;;;11.70;35.80;;;;;;5013344;28;20908;-74
2021/11/06 10:33:13;;;;;;;16.50;6.75;;;11.90;35.70;;;;;;5011940;28;20400;-73
2021/11/06 10:35:43;;;;;;;19.08;6.97;;;11.90;35.40;;;;;;5013207;28;20459;-74
2021/11/06 10:38:14;;;;;;;17.02;6.70;;;12.00;35.20;;;;;;5011268;28;20400;-74
2021/11/06 10:40:50;;;;;;;22.13;7.75;;;12.00;35.20;;;;;;5013465;28;20381;-76
2021/11/06 10:43:18;;;;;;;14.43;7.55;;;11.90;35.80;;;;;;5012378;28;20397;-74
2021/11/06 10:45:54;;;;;;;9.95;6.20;;;11.90;35.60;;;;;;5010216;28;20412;-74
2021/11/06 10:48:23;;;;;;;11.05;7.00;;;11.80;36.10;;;;;;5012268;28;20401;-73
2021/11/06 10:50:50;;;;;;;15.27;7.35;;;11.90;36.50;;;;;;5010953;28;20478;-74
2021/11/06 10:53:34;;;;;;;12.68;6.47;;;11.90;36.40;;;;;;5012068;28;20404;-74
2021/11/06 10:56:03;;;;;;;9.23;6.63;;;12.10;35.80;;;;;;5012059;28;21485;-75
2021/11/06 10:58:31;;;;;;;14.02;6.95;;;12.50;35.20;;;;;;5012203;28;20831;-74
2021/11/06 11:01:05;;;;;;;9.70;6.57;;;12.80;34.20;;;;;;5012065;28;20444;-73
2021/11/06 11:03:43;;;;;;;11.60;6.65;;;13.00;33.40;;;;;;5011629;28;20440;-75
2021/11/06 11:06:14;;;;;;;13.37;6.60;;;13.10;32.90;;;;;;5012726;28;20412;-74
2021/11/06 11:08:51;;;;;;;10.70;6.00;;;13.30;31.50;;;;;;5011773;28;20447;-73
2021/11/06 11:11:19;;;;;;;14.13;5.72;;;13.40;31.60;;;;;;5012917;28;20708;-72
2021/11/06 11:13:56;;;;;;;13.27;5.70;;;13.60;31.20;;;;;;5012381;28;20430;-74
2021/11/06 11:16:24;;;;;;;10.00;6.10;;;13.80;30.50;;;;;;5012806;28;20484;-75
2021/11/06 11:18:52;;;;;;;10.23;5.85;;;13.80;31.00;;;;;;5011405;28;20406;-74
2021/11/06 11:21:21;;;;;;;8.00;5.47;;;13.90;30.20;;;;;;5011346;28;20405;-74
2021/11/06 11:23:52;;;;;;;7.57;5.32;;;13.80;30.40;;;;;;5011056;28;20405;-75
2021/11/06 11:26:22;;;;;;;9.85;5.20;;;13.60;30.30;;;;;;5013014;28;20406;-76
2021/11/06 11:28:48;;;;;;;9.25;6.07;;;13.50;31.00;;;;;;5017347;28;20392;-76
2021/11/06 11:31:14;;;;;;;7.65;5.15;;;13.50;31.30;;;;;;5013959;28;20424;-76
2021/11/06 11:33:42;;;;;;;6.53;4.70;;;13.40;31.00;;;;;;5015210;28;20404;-77
2021/11/06 11:36:10;;;;;;;8.27;5.80;;;13.20;31.30;;;;;;5007572;28;20944;-78
2021/11/06 11:38:37;;;;;;;8.15;5.38;;;13.10;32.50;;;;;;5013528;28;20388;-76
2021/11/06 11:41:31;;;;;;;10.25;5.05;;;13.00;32.50;;;;;;5015300;28;20408;-76
2021/11/06 11:44:31;;;;;;;6.80;5.50;;;13.10;32.20;;;;;;5005612;28;20396;-78
2021/11/06 11:47:01;;;;;;;8.32;5.22;;;13.20;32.40;;;;;;5006496;28;20895;-76
2021/11/06 11:49:32;;;;;;;10.33;5.03;;;13.20;32.40;;;;;;5013649;28;20394;-77
2021/11/06 11:51:58;;;;;;;7.85;5.20;;;13.40;32.10;;;;;;5017304;28;20403;-79
2021/11/06 11:54:24;;;;;;;8.50;4.80;;;13.60;31.20;;;;;;5018217;28;20413;-78
2021/11/06 11:57:13;;;;;;;6.80;4.43;;;13.80;30.30;;;;;;5014621;28;20404;-77
2021/11/06 11:59:38;;;;;;;6.05;4.10;;;13.90;30.40;;;;;;5012216;28;20401;-74
2021/11/06 12:02:25;;;;;;;6.80;4.20;;;14.00;29.50;;;;;;5011714;28;20463;-76
2021/11/06 12:05:16;;;;;;;9.50;3.92;;;14.20;29.00;;;;;;5011841;28;20801;-75
2021/11/06 12:07:47;;;;;;;5.88;4.05;;;14.30;28.70;;;;;;5014846;28;20766;-77
2021/11/06 12:10:27;;;;;;;4.45;2.70;;;14.50;27.20;;;;;;5026687;28;20408;-78
2021/11/06 12:12:54;;;;;;;5.90;2.80;;;14.50;26.20;;;;;;5017773;28;21265;-79
2021/11/06 12:15:20;;;;;;;4.80;3.20;;;14.60;26.80;;;;;;5010762;28;20397;-76
2021/11/06 12:17:46;;;;;;;3.70;2.70;;;14.50;27.40;;;;;;5008681;28;20405;-75
2021/11/06 12:20:27;;;;;;;6.45;2.92;;;14.50;26.70;;;;;;5011263;28;20436;-78
2021/11/06 12:22:53;;;;;;;4.63;2.80;;;14.40;26.80;;;;;;5018747;28;20396;-74
2021/11/06 12:25:20;;;;;;;4.80;2.20;;;14.40;26.00;;;;;;5028929;28;20401;-74
2021/11/06 12:27:52;;;;;;;5.50;2.50;;;14.40;26.00;;;;;;5027865;28;20482;-76
2021/11/06 12:30:36;;;;;;;4.40;2.10;;;14.30;25.90;;;;;;5018511;28;20409;-79
2021/11/06 12:33:04;;;;;;;3.25;2.20;;;14.40;25.60;;;;;;5016372;28;20392;-79
2021/11/06 12:35:31;;;;;;;5.40;2.30;;;14.40;25.70;;;;;;5010731;28;21005;-77
2021/11/06 12:38:01;;;;;;;4.85;2.22;;;14.40;25.20;;;;;;5013896;28;20459;-77
2021/11/06 12:40:55;;;;;;;5.00;2.10;;;14.60;25.40;;;;;;5009212;28;20400;-75
2021/11/06 12:43:29;;;;;;;6.50;2.50;;;14.80;25.10;;;;;;5004484;28;20886;-76
2021/11/06 12:46:16;;;;;;;5.28;2.60;;;14.60;25.30;;;;;;5002722;28;20462;-76